BIBD

Bildudalur Airport

Bildudalur, Iceland
METAR BIBD 231300Z 04009KT CAVOK 13/03 Q1000
Observed Flight Rules
Jul-23 @ 13:00 UTC (30 minutes ago) Visual Flight Rules
Wind Visibility Clouds
40° at 9 knots 10,000+ meters
  • Clear skies
Temperatures Readings
Current 13°C / 55°F
Dewpoint 3°C / 37°F
Humidity 51%
Altimeter 29.53" Hg
Pressure 1000 hPa
Elevation 6
METAR BIBD 231300Z 04009KT CAVOK 13/03 Q1000
Observed Flight Rules
Jul-23 @ 13:00 UTC
(30 minutes ago)
VFR
Wind Visibility
40° at 9 knots 10,000+ meters
Clouds
  • Clear skies
Temperature Dewpoint
13°C / 55°F 3°C / 37°F
Humidity Altimeter Pressure
51% 29.53" Hg 1000 hPa